Time;durP1;ratioP1;P1;durP2;ratioP2;P2;SDS_P1;SDS_P2;PMS_P1;PMS_P2;Temp;Humidity;BMP_temperature;BMP_pressure;BME280_temperature;BME280_humidity;BME280_pressure;Samples;Min_cycle;Max_cycle;Signal;HPM_P1;HPM_P2
2021/07/11 00:01:02;;;;;;;14.45;8.02;;;;;;;;;;5117175;28;20036;-80
2021/07/11 00:03:28;;;;;;;17.27;7.30;;;;;;;;;;5117197;28;20130;-80
2021/07/11 00:05:53;;;;;;;19.17;7.80;;;;;;;;;;5116736;27;20040;-80
2021/07/11 00:08:18;;;;;;;11.70;6.95;;;;;;;;;;5117049;28;20116;-80
2021/07/11 00:10:44;;;;;;;20.20;7.85;;;;;;;;;;5116907;28;20036;-80
2021/07/11 00:13:09;;;;;;;14.00;8.00;;;;;;;;;;5115368;28;20036;-80
2021/07/11 00:15:35;;;;;;;22.88;8.20;;;;;;;;;;5115613;28;20043;-80
2021/07/11 00:18:02;;;;;;;24.30;7.78;;;;;;;;;;5115221;28;20036;-80
2021/07/11 00:20:27;;;;;;;19.20;8.60;;;;;;;;;;5116698;28;20035;-80
2021/07/11 00:22:53;;;;;;;13.65;7.40;;;;;;;;;;5116385;28;20459;-80
2021/07/11 00:25:19;;;;;;;16.27;7.85;;;;;;;;;;5106961;28;20123;-80
2021/07/11 00:27:45;;;;;;;12.27;7.60;;;;;;;;;;5094307;28;20118;-79
2021/07/11 00:30:12;;;;;;;12.05;7.35;;;;;;;;;;5095660;28;20036;-79
2021/07/11 00:32:38;;;;;;;21.48;6.90;;;;;;;;;;5095811;28;20093;-79
2021/07/11 00:35:04;;;;;;;18.38;8.00;;;;;;;;;;5095770;28;20032;-79
2021/07/11 00:37:29;;;;;;;11.18;7.75;;;;;;;;;;5095679;28;20040;-79
2021/07/11 00:39:55;;;;;;;15.20;7.05;;;;;;;;;;5095598;28;20082;-79
2021/07/11 00:42:24;;;;;;;24.27;8.02;;;;;;;;;;5093796;28;20032;-79
2021/07/11 00:44:49;;;;;;;21.35;8.80;;;;;;;;;;5094931;28;20081;-79
2021/07/11 00:47:16;;;;;;;9.35;7.07;;;;;;;;;;5095371;28;20035;-79
2021/07/11 00:49:44;;;;;;;13.98;7.43;;;;;;;;;;5094967;28;20086;-79
2021/07/11 00:52:11;;;;;;;15.57;8.13;;;;;;;;;;5094849;28;20403;-79
2021/07/11 00:54:37;;;;;;;14.38;8.27;;;;;;;;;;5097052;28;20118;-79
2021/07/11 00:57:06;;;;;;;11.25;7.50;;;;;;;;;;5113968;27;20023;-79
2021/07/11 00:59:33;;;;;;;14.63;7.75;;;;;;;;;;5115115;28;20063;-79
2021/07/11 01:02:05;;;;;;;12.93;8.07;;;;;;;;;;5113911;28;20031;-79
2021/07/11 01:04:55;;;;;;;21.58;9.75;;;;;;;;;;5113595;28;20071;-79
2021/07/11 01:07:36;;;;;;;17.05;10.70;;;;;;;;;;5096855;28;20027;-79
2021/07/11 01:10:09;;;;;;;24.98;10.50;;;;;;;;;;5113931;28;20035;-79
2021/07/11 01:12:42;;;;;;;133.68;12.77;;;;;;;;;;5114732;28;20538;-79
2021/07/11 01:15:09;;;;;;;57.13;10.77;;;;;;;;;;5113316;28;20042;-79
2021/07/11 01:17:38;;;;;;;16.45;11.05;;;;;;;;;;5114587;28;20035;-79
2021/07/11 01:20:34;;;;;;;20.70;9.90;;;;;;;;;;5114726;28;20035;-79
2021/07/11 01:23:02;;;;;;;16.95;9.15;;;;;;;;;;5113624;28;20034;-79
2021/07/11 01:25:45;;;;;;;19.33;9.32;;;;;;;;;;5113826;28;20047;-79
2021/07/11 01:28:15;;;;;;;15.13;10.75;;;;;;;;;;5114017;28;20039;-79
2021/07/11 01:30:47;;;;;;;18.25;9.50;;;;;;;;;;5117332;28;20170;-80
2021/07/11 01:33:13;;;;;;;17.00;7.90;;;;;;;;;;5119016;28;20051;-80
2021/07/11 01:35:40;;;;;;;30.67;9.60;;;;;;;;;;5100991;28;20065;-80
2021/07/11 01:38:08;;;;;;;16.13;8.20;;;;;;;;;;5118883;28;20039;-80
2021/07/11 01:40:35;;;;;;;19.92;8.27;;;;;;;;;;5117305;28;20060;-80
2021/07/11 01:43:05;;;;;;;28.35;8.90;;;;;;;;;;5117321;28;20390;-79
2021/07/11 01:45:34;;;;;;;18.40;9.60;;;;;;;;;;5117832;28;20127;-79
2021/07/11 01:48:00;;;;;;;17.58;9.13;;;;;;;;;;5116805;28;20514;-79
2021/07/11 01:50:26;;;;;;;19.55;9.90;;;;;;;;;;5117748;28;20398;-80
2021/07/11 01:52:53;;;;;;;21.42;9.48;;;;;;;;;;5117454;28;20030;-79
2021/07/11 01:55:21;;;;;;;23.27;9.63;;;;;;;;;;5115531;28;20032;-79
2021/07/11 01:57:46;;;;;;;18.23;9.35;;;;;;;;;;5117568;28;20111;-79
2021/07/11 02:00:14;;;;;;;18.00;9.32;;;;;;;;;;5116961;28;20059;-79
2021/07/11 02:02:44;;;;;;;67.57;9.00;;;;;;;;;;5117532;28;20027;-79
2021/07/11 02:05:18;;;;;;;29.07;10.40;;;;;;;;;;5115459;28;20055;-79
2021/07/11 02:07:45;;;;;;;40.67;10.23;;;;;;;;;;5115386;28;20309;-79
2021/07/11 02:10:14;;;;;;;22.77;11.00;;;;;;;;;;5114818;28;20077;-79
2021/07/11 02:12:58;;;;;;;24.58;11.82;;;;;;;;;;5116319;28;20027;-79
2021/07/11 02:15:29;;;;;;;27.02;9.82;;;;;;;;;;5114079;28;20038;-79
2021/07/11 02:17:57;;;;;;;25.63;10.35;;;;;;;;;;5114026;28;20031;-79
2021/07/11 02:20:34;;;;;;;18.50;9.50;;;;;;;;;;5113736;28;20490;-79
2021/07/11 02:23:01;;;;;;;20.27;10.75;;;;;;;;;;5114312;28;20110;-79
2021/07/11 02:25:27;;;;;;;20.13;9.55;;;;;;;;;;5115343;28;20116;-79
2021/07/11 02:28:01;;;;;;;25.73;9.32;;;;;;;;;;5114198;28;20038;-79
2021/07/11 02:30:40;;;;;;;59.65;10.63;;;;;;;;;;5114983;28;20027;-79
2021/07/11 02:33:11;;;;;;;17.50;9.75;;;;;;;;;;5115071;28;20039;-79
2021/07/11 02:35:41;;;;;;;22.35;10.82;;;;;;;;;;5114351;28;20057;-79
2021/07/11 02:38:11;;;;;;;15.20;9.48;;;;;;;;;;5114794;28;20038;-79
2021/07/11 02:40:37;;;;;;;12.48;9.25;;;;;;;;;;5113501;28;20027;-79
2021/07/11 02:43:07;;;;;;;11.00;8.35;;;;;;;;;;5113526;28;20118;-79
2021/07/11 02:45:36;;;;;;;19.65;9.88;;;;;;;;;;5113593;28;20073;-79
2021/07/11 02:48:05;;;;;;;37.63;10.02;;;;;;;;;;5115058;28;20028;-79
2021/07/11 02:50:36;;;;;;;14.93;9.95;;;;;;;;;;5113066;28;20031;-79
2021/07/11 02:53:04;;;;;;;24.33;9.95;;;;;;;;;;5114355;28;20028;-79
2021/07/11 02:55:35;;;;;;;95.60;14.32;;;;;;;;;;5110018;28;20050;-79
2021/07/11 02:58:09;;;;;;;39.97;11.48;;;;;;;;;;5092678;28;20027;-79
2021/07/11 03:00:37;;;;;;;14.20;11.27;;;;;;;;;;5092682;28;20448;-79
2021/07/11 03:03:04;;;;;;;17.33;10.95;;;;;;;;;;5092517;28;20040;-79
2021/07/11 03:05:39;;;;;;;70.97;12.02;;;;;;;;;;5092074;28;20044;-79
2021/07/11 03:08:06;;;;;;;69.70;11.75;;;;;;;;;;5092559;28;20038;-79
2021/07/11 03:10:32;;;;;;;20.02;10.50;;;;;;;;;;5093975;28;20039;-79
2021/07/11 03:13:03;;;;;;;13.65;10.10;;;;;;;;;;5092380;28;20032;-79
2021/07/11 03:15:32;;;;;;;21.23;11.00;;;;;;;;;;5093612;28;20032;-79
2021/07/11 03:18:00;;;;;;;31.67;10.63;;;;;;;;;;5092280;28;20032;-79
2021/07/11 03:20:27;;;;;;;27.67;10.88;;;;;;;;;;5093498;28;20032;-79
2021/07/11 03:22:55;;;;;;;131.32;13.27;;;;;;;;;;5092768;28;20054;-79
2021/07/11 03:25:25;;;;;;;31.70;12.02;;;;;;;;;;5095157;28;20497;-79
2021/07/11 03:27:51;;;;;;;85.57;13.13;;;;;;;;;;5114315;28;20489;-79
2021/07/11 03:30:20;;;;;;;14.95;11.13;;;;;;;;;;5113734;28;20039;-79
2021/07/11 03:33:02;;;;;;;20.10;12.13;;;;;;;;;;5117313;28;20062;-79
2021/07/11 03:35:52;;;;;;;19.80;10.85;;;;;;;;;;5117560;28;20047;-79
2021/07/11 03:38:29;;;;;;;20.10;12.00;;;;;;;;;;5116082;28;20027;-79
2021/07/11 03:40:56;;;;;;;14.70;11.88;;;;;;;;;;5115934;28;20027;-79
2021/07/11 03:43:25;;;;;;;13.32;11.60;;;;;;;;;;5117642;28;20031;-79
2021/07/11 03:46:01;;;;;;;14.85;10.70;;;;;;;;;;5116456;28;20070;-79
2021/07/11 03:48:31;;;;;;;36.13;11.32;;;;;;;;;;5116855;27;20671;-79
2021/07/11 03:51:01;;;;;;;33.35;12.13;;;;;;;;;;5115485;28;20099;-79
2021/07/11 03:53:31;;;;;;;27.70;11.48;;;;;;;;;;5117053;28;20232;-79
2021/07/11 03:55:58;;;;;;;24.67;11.32;;;;;;;;;;5110413;28;20092;-79
2021/07/11 03:58:28;;;;;;;14.77;10.00;;;;;;;;;;5095138;28;20036;-79
2021/07/11 04:00:55;;;;;;;23.40;10.57;;;;;;;;;;5096089;28;20086;-79
2021/07/11 04:03:24;;;;;;;13.95;10.82;;;;;;;;;;5095268;28;20028;-79
2021/07/11 04:05:50;;;;;;;67.68;11.45;;;;;;;;;;5094721;28;20060;-79
2021/07/11 04:08:17;;;;;;;22.05;11.23;;;;;;;;;;5095944;28;20544;-79
2021/07/11 04:10:43;;;;;;;117.63;14.77;;;;;;;;;;5095939;28;20403;-79
2021/07/11 04:13:10;;;;;;;32.80;12.90;;;;;;;;;;5094708;28;20554;-79
2021/07/11 04:15:36;;;;;;;90.00;15.27;;;;;;;;;;5095708;28;20032;-79
2021/07/11 04:18:05;;;;;;;246.50;15.60;;;;;;;;;;5095746;28;20074;-79
2021/07/11 04:20:32;;;;;;;41.90;12.93;;;;;;;;;;5095845;28;20494;-79
2021/07/11 04:23:00;;;;;;;126.18;11.65;;;;;;;;;;5094731;28;20035;-79
2021/07/11 04:25:30;;;;;;;35.75;11.15;;;;;;;;;;5097517;28;20123;-79
2021/07/11 04:27:56;;;;;;;62.53;11.40;;;;;;;;;;5116255;28;20031;-79
2021/07/11 04:30:22;;;;;;;90.90;11.27;;;;;;;;;;5115709;28;20394;-79
2021/07/11 04:32:48;;;;;;;12.40;9.63;;;;;;;;;;5116044;28;20032;-79
2021/07/11 04:35:14;;;;;;;37.20;10.55;;;;;;;;;;5116106;28;20418;-79
2021/07/11 04:37:39;;;;;;;17.35;10.27;;;;;;;;;;5114662;28;20028;-79
2021/07/11 04:40:05;;;;;;;16.65;11.57;;;;;;;;;;5115956;28;20455;-79
2021/07/11 04:42:31;;;;;;;32.03;11.77;;;;;;;;;;5114106;28;20034;-79
2021/07/11 04:44:56;;;;;;;12.80;11.40;;;;;;;;;;5115718;28;20523;-79
2021/07/11 04:47:22;;;;;;;10.80;9.60;;;;;;;;;;5115801;28;20036;-79
2021/07/11 04:49:47;;;;;;;15.68;11.48;;;;;;;;;;5115926;28;20035;-79
2021/07/11 04:52:13;;;;;;;23.90;11.27;;;;;;;;;;5115726;28;20035;-79
2021/07/11 04:54:38;;;;;;;17.15;12.35;;;;;;;;;;5115510;28;20036;-79
2021/07/11 04:57:04;;;;;;;31.27;14.82;;;;;;;;;;5098351;28;20044;-79
2021/07/11 04:59:31;;;;;;;143.02;14.55;;;;;;;;;;5096345;28;20459;-80
2021/07/11 05:01:56;;;;;;;163.52;14.95;;;;;;;;;;5099111;28;20039;-79
2021/07/11 05:04:22;;;;;;;146.68;14.07;;;;;;;;;;5099156;28;20059;-80
2021/07/11 05:06:47;;;;;;;42.30;12.93;;;;;;;;;;5098392;28;20043;-80
2021/07/11 05:09:12;;;;;;;65.95;11.20;;;;;;;;;;5098591;28;20036;-80
2021/07/11 05:11:38;;;;;;;21.20;11.05;;;;;;;;;;5098449;28;20032;-79
2021/07/11 05:14:04;;;;;;;165.25;12.70;;;;;;;;;;5097971;28;20036;-79
2021/07/11 05:16:30;;;;;;;22.02;11.38;;;;;;;;;;5096067;28;20032;-79
2021/07/11 05:18:56;;;;;;;23.10;10.13;;;;;;;;;;5097286;28;20042;-79
2021/07/11 05:21:22;;;;;;;15.18;11.57;;;;;;;;;;5097737;28;20039;-79
2021/07/11 05:23:48;;;;;;;18.58;12.52;;;;;;;;;;5097661;28;20067;-79
2021/07/11 05:26:13;;;;;;;17.45;12.55;;;;;;;;;;5105570;28;20493;-79
2021/07/11 05:28:44;;;;;;;19.15;13.65;;;;;;;;;;5118281;28;20063;-79
2021/07/11 05:31:11;;;;;;;14.57;10.02;;;;;;;;;;5117789;28;20067;-80
2021/07/11 05:33:37;;;;;;;18.33;11.05;;;;;;;;;;5117504;28;20043;-79
2021/07/11 05:36:02;;;;;;;11.30;9.30;;;;;;;;;;5117517;28;20444;-79
2021/07/11 05:38:28;;;;;;;10.27;9.07;;;;;;;;;;5117808;28;20031;-79
2021/07/11 05:40:54;;;;;;;11.40;8.15;;;;;;;;;;5116438;28;20070;-79
2021/07/11 05:43:19;;;;;;;17.70;8.50;;;;;;;;;;5117080;28;20031;-79
2021/07/11 05:45:45;;;;;;;8.02;7.22;;;;;;;;;;5117354;28;20031;-79
2021/07/11 05:48:10;;;;;;;11.23;8.23;;;;;;;;;;5117974;28;20092;-79
2021/07/11 05:50:36;;;;;;;9.68;7.95;;;;;;;;;;5117182;28;20031;-79
2021/07/11 05:53:01;;;;;;;11.88;9.13;;;;;;;;;;5116907;28;20564;-79
2021/07/11 05:55:27;;;;;;;21.00;10.55;;;;;;;;;;5116229;28;20039;-79
2021/07/11 05:57:52;;;;;;;10.02;8.57;;;;;;;;;;5117474;28;20071;-79
2021/07/11 06:00:18;;;;;;;9.68;8.15;;;;;;;;;;5116304;28;20027;-80
2021/07/11 06:02:44;;;;;;;10.63;7.97;;;;;;;;;;5118061;28;20466;-79
2021/07/11 06:05:10;;;;;;;8.85;7.90;;;;;;;;;;5117972;28;20058;-79
2021/07/11 06:07:35;;;;;;;7.95;6.68;;;;;;;;;;5116902;28;20096;-79
2021/07/11 06:10:04;;;;;;;11.25;7.72;;;;;;;;;;5117352;28;20542;-79
2021/07/11 06:12:29;;;;;;;8.85;6.18;;;;;;;;;;5117895;28;20078;-79
2021/07/11 06:14:55;;;;;;;7.30;6.28;;;;;;;;;;5116246;28;20031;-80
2021/07/11 06:17:21;;;;;;;8.15;7.35;;;;;;;;;;5116576;28;20035;-80
2021/07/11 06:19:47;;;;;;;8.32;6.35;;;;;;;;;;5115770;28;20050;-80
2021/07/11 06:22:12;;;;;;;11.40;6.22;;;;;;;;;;5115855;28;20019;-80
2021/07/11 06:24:38;;;;;;;7.35;5.82;;;;;;;;;;5097401;28;20035;-80
2021/07/11 06:27:03;;;;;;;6.20;4.72;;;;;;;;;;5115428;28;20042;-80
2021/07/11 06:29:28;;;;;;;9.75;5.15;;;;;;;;;;5114993;28;20038;-80
2021/07/11 06:31:54;;;;;;;5.13;4.55;;;;;;;;;;5116510;28;20058;-80
2021/07/11 06:34:19;;;;;;;7.50;5.55;;;;;;;;;;5116450;28;20031;-80
2021/07/11 06:36:45;;;;;;;5.78;5.13;;;;;;;;;;5116426;28;20068;-80
2021/07/11 06:39:10;;;;;;;6.97;5.28;;;;;;;;;;5115421;28;20084;-80
2021/07/11 06:41:35;;;;;;;7.60;5.80;;;;;;;;;;5116126;28;20487;-80
2021/07/11 06:44:01;;;;;;;7.95;5.57;;;;;;;;;;5116499;28;20031;-80
2021/07/11 06:46:27;;;;;;;6.75;4.70;;;;;;;;;;5114639;28;20043;-80
2021/07/11 06:48:52;;;;;;;5.63;4.50;;;;;;;;;;5116744;28;20027;-80
2021/07/11 06:51:17;;;;;;;16.10;4.97;;;;;;;;;;5114740;28;20042;-80
2021/07/11 06:53:43;;;;;;;8.65;5.38;;;;;;;;;;5116226;28;20038;-77
2021/07/11 06:56:08;;;;;;;7.30;5.68;;;;;;;;;;5113880;28;20034;-80
2021/07/11 06:58:34;;;;;;;5.45;4.95;;;;;;;;;;5115919;28;20023;-81
2021/07/11 07:00:59;;;;;;;5.78;4.90;;;;;;;;;;5113135;28;20497;-81
2021/07/11 07:03:25;;;;;;;5.90;5.20;;;;;;;;;;5115098;28;20039;-81
2021/07/11 07:05:51;;;;;;;8.45;5.75;;;;;;;;;;5115134;28;20048;-81
2021/07/11 07:08:17;;;;;;;5.82;5.22;;;;;;;;;;5118329;28;20039;-80
2021/07/11 07:10:42;;;;;;;9.15;5.18;;;;;;;;;;5119336;28;20043;-80
2021/07/11 07:13:08;;;;;;;7.20;5.65;;;;;;;;;;5119102;28;20031;-82
2021/07/11 07:15:33;;;;;;;8.07;5.78;;;;;;;;;;5118801;27;20406;-81
2021/07/11 07:17:59;;;;;;;9.68;6.05;;;;;;;;;;5117557;28;20106;-82
2021/07/11 07:20:24;;;;;;;9.80;6.20;;;;;;;;;;5117963;28;20482;-82
2021/07/11 07:22:49;;;;;;;8.85;6.63;;;;;;;;;;5118779;28;20371;-82
2021/07/11 07:25:17;;;;;;;8.23;5.57;;;;;;;;;;5120581;28;20027;-81
2021/07/11 07:27:44;;;;;;;8.43;6.00;;;;;;;;;;5120733;28;20061;-84
2021/07/11 07:30:15;;;;;;;7.65;5.90;;;;;;;;;;5119427;28;20032;-81
2021/07/11 07:32:41;;;;;;;8.00;5.63;;;;;;;;;;5117293;28;20547;-80
2021/07/11 07:35:07;;;;;;;8.27;6.38;;;;;;;;;;5116026;28;20039;-81
2021/07/11 07:37:33;;;;;;;8.82;6.50;;;;;;;;;;5117478;28;20035;-81
2021/07/11 07:39:59;;;;;;;11.07;6.38;;;;;;;;;;5117333;28;20032;-80
2021/07/11 07:42:25;;;;;;;7.97;6.20;;;;;;;;;;5117106;28;20042;-80
2021/07/11 07:44:50;;;;;;;6.70;6.05;;;;;;;;;;5117413;28;20032;-81
2021/07/11 07:47:16;;;;;;;6.75;6.05;;;;;;;;;;5118961;28;20036;-82
2021/07/11 07:49:41;;;;;;;10.73;8.48;;;;;;;;;;5121084;28;20031;-82
2021/07/11 07:52:07;;;;;;;9.57;7.15;;;;;;;;;;5119090;28;20496;-81
2021/07/11 07:54:32;;;;;;;8.13;6.13;;;;;;;;;;5120788;28;20038;-82
2021/07/11 07:56:57;;;;;;;11.10;6.90;;;;;;;;;;5104263;28;20036;-81
2021/07/11 07:59:23;;;;;;;8.00;6.35;;;;;;;;;;5097495;28;20505;-80
2021/07/11 08:01:48;;;;;;;9.98;6.78;;;;;;;;;;5094903;28;20028;-82
2021/07/11 08:04:14;;;;;;;7.95;6.32;;;;;;;;;;5096619;28;20075;-83
2021/07/11 08:06:39;;;;;;;8.27;7.10;;;;;;;;;;5095283;28;20042;-81
2021/07/11 08:09:06;;;;;;;9.43;7.35;;;;;;;;;;5095122;28;20031;-80
2021/07/11 08:11:33;;;;;;;7.82;6.95;;;;;;;;;;5096085;28;20032;-81
2021/07/11 08:13:58;;;;;;;7.35;6.45;;;;;;;;;;5095671;28;20039;-80
2021/07/11 08:16:24;;;;;;;14.77;6.70;;;;;;;;;;5095916;28;20036;-80
2021/07/11 08:18:56;;;;;;;9.77;6.90;;;;;;;;;;5079521;28;20402;-82
2021/07/11 08:21:22;;;;;;;9.45;6.88;;;;;;;;;;5094529;28;20089;-80
2021/07/11 08:23:48;;;;;;;16.55;6.32;;;;;;;;;;5096723;28;20039;-79
2021/07/11 08:26:13;;;;;;;8.65;6.72;;;;;;;;;;5102809;28;20074;-82
2021/07/11 08:28:40;;;;;;;13.82;6.25;;;;;;;;;;5116634;28;20035;-78
2021/07/11 08:31:05;;;;;;;7.47;6.13;;;;;;;;;;5118355;28;20047;-80
2021/07/11 08:33:31;;;;;;;7.07;6.28;;;;;;;;;;5120169;28;20027;-82
2021/07/11 08:35:56;;;;;;;9.77;6.03;;;;;;;;;;5120789;28;20036;-82
2021/07/11 08:38:22;;;;;;;8.48;6.70;;;;;;;;;;5118774;28;20086;-82
2021/07/11 08:40:47;;;;;;;9.60;6.97;;;;;;;;;;5120454;28;20051;-82
2021/07/11 08:43:13;;;;;;;9.48;6.13;;;;;;;;;;5120494;28;20035;-83
2021/07/11 08:45:39;;;;;;;9.10;6.18;;;;;;;;;;5120338;28;20031;-83
2021/07/11 08:48:05;;;;;;;8.95;5.93;;;;;;;;;;5120460;28;20043;-83
2021/07/11 08:50:34;;;;;;;8.38;6.78;;;;;;;;;;5120942;28;20038;-83
2021/07/11 08:53:00;;;;;;;12.15;7.18;;;;;;;;;;5120545;28;20051;-83
2021/07/11 08:55:26;;;;;;;8.27;6.57;;;;;;;;;;5120190;28;20035;-83
2021/07/11 08:57:55;;;;;;;8.20;6.68;;;;;;;;;;5118451;28;20512;-83
2021/07/11 09:00:22;;;;;;;12.40;6.50;;;;;;;;;;5118256;28;20538;-83
2021/07/11 09:02:48;;;;;;;8.35;5.57;;;;;;;;;;5119659;28;20028;-83
2021/07/11 09:05:21;;;;;;;7.18;6.45;;;;;;;;;;5100625;28;20505;-82
2021/07/11 09:07:56;;;;;;;9.68;7.35;;;;;;;;;;5117867;28;20027;-83
2021/07/11 09:10:29;;;;;;;8.05;6.88;;;;;;;;;;5119066;28;20393;-83
2021/07/11 09:12:55;;;;;;;8.07;6.00;;;;;;;;;;5119488;28;20031;-81
2021/07/11 09:15:31;;;;;;;13.10;6.00;;;;;;;;;;5119417;28;20035;-80
2021/07/11 09:17:56;;;;;;;12.68;6.35;;;;;;;;;;5120805;28;20031;-82
2021/07/11 09:20:22;;;;;;;11.32;6.80;;;;;;;;;;5117461;28;20058;-81
2021/07/11 09:22:57;;;;;;;7.07;6.38;;;;;;;;;;5116739;28;20043;-80
2021/07/11 09:25:22;;;;;;;10.27;6.72;;;;;;;;;;5116916;28;20043;-82
2021/07/11 09:27:48;;;;;;;6.57;5.80;;;;;;;;;;5118714;28;20020;-81
2021/07/11 09:30:15;;;;;;;8.35;5.90;;;;;;;;;;5118106;28;20032;-81
2021/07/11 09:32:41;;;;;;;8.00;6.65;;;;;;;;;;5119169;28;20127;-80
2021/07/11 09:35:13;;;;;;;12.25;6.53;;;;;;;;;;5118240;28;20032;-83
2021/07/11 09:37:42;;;;;;;12.10;6.68;;;;;;;;;;5098383;28;20079;-80
2021/07/11 09:40:09;;;;;;;8.27;6.85;;;;;;;;;;5116706;28;20678;-81
2021/07/11 09:42:37;;;;;;;9.32;7.20;;;;;;;;;;5115232;28;20085;-81
2021/07/11 09:45:05;;;;;;;8.20;6.55;;;;;;;;;;5116353;28;20027;-82
2021/07/11 09:47:31;;;;;;;10.63;7.15;;;;;;;;;;5115852;28;20032;-80
2021/07/11 09:50:11;;;;;;;9.15;7.20;;;;;;;;;;5115989;28;20043;-82
2021/07/11 09:52:41;;;;;;;9.57;7.18;;;;;;;;;;5115323;28;20027;-79
2021/07/11 09:55:08;;;;;;;8.98;6.65;;;;;;;;;;5115418;28;20040;-78
2021/07/11 09:57:36;;;;;;;10.57;6.07;;;;;;;;;;5115418;28;20032;-79
2021/07/11 10:00:07;;;;;;;9.13;6.30;;;;;;;;;;5114911;28;20502;-79
2021/07/11 10:02:36;;;;;;;6.68;5.88;;;;;;;;;;5115211;28;20466;-79
2021/07/11 10:05:01;;;;;;;10.43;6.10;;;;;;;;;;5114954;28;20079;-79
2021/07/11 10:07:27;;;;;;;6.32;5.18;;;;;;;;;;5115204;28;20121;-80
2021/07/11 10:09:54;;;;;;;8.23;5.93;;;;;;;;;;5115453;28;20051;-82
2021/07/11 10:12:19;;;;;;;6.78;5.72;;;;;;;;;;5114322;28;20387;-79
2021/07/11 10:14:44;;;;;;;8.98;6.70;;;;;;;;;;5115201;28;20040;-81
2021/07/11 10:17:11;;;;;;;8.85;6.70;;;;;;;;;;5113447;28;20035;-81
2021/07/11 10:19:37;;;;;;;7.20;6.22;;;;;;;;;;5112882;28;20273;-79
2021/07/11 10:22:13;;;;;;;7.85;6.35;;;;;;;;;;5115037;28;20058;-79
2021/07/11 10:24:43;;;;;;;9.82;6.90;;;;;;;;;;5108554;28;20028;-80
2021/07/11 10:27:19;;;;;;;9.18;7.35;;;;;;;;;;5093107;28;20038;-81
2021/07/11 10:29:46;;;;;;;8.60;7.45;;;;;;;;;;5114056;28;20501;-83
2021/07/11 10:32:33;;;;;;;8.75;6.75;;;;;;;;;;5117741;28;20047;-80
2021/07/11 10:35:08;;;;;;;9.90;7.90;;;;;;;;;;5114831;28;20431;-79
2021/07/11 10:37:53;;;;;;;13.27;7.10;;;;;;;;;;5111388;28;20036;-81
2021/07/11 10:40:30;;;;;;;10.63;7.33;;;;;;;;;;5115112;28;20062;-80
2021/07/11 10:42:56;;;;;;;10.10;7.68;;;;;;;;;;5117385;28;20035;-80
2021/07/11 10:45:22;;;;;;;10.85;6.93;;;;;;;;;;5118355;28;20038;-80
2021/07/11 10:47:48;;;;;;;9.60;7.13;;;;;;;;;;5118790;28;20537;-80
2021/07/11 10:50:28;;;;;;;11.02;6.63;;;;;;;;;;5118384;28;20047;-80
2021/07/11 10:52:58;;;;;;;9.75;6.57;;;;;;;;;;5118356;28;20035;-81
2021/07/11 10:55:33;;;;;;;8.50;7.28;;;;;;;;;;5117737;28;20032;-80
2021/07/11 10:58:18;;;;;;;12.17;7.03;;;;;;;;;;5117846;28;20504;-80
2021/07/11 11:00:48;;;;;;;7.65;6.82;;;;;;;;;;5117994;28;20756;-81
2021/07/11 11:03:18;;;;;;;10.45;7.55;;;;;;;;;;5117695;28;20374;-80
2021/07/11 11:05:45;;;;;;;7.70;6.22;;;;;;;;;;5117627;28;20078;-82
2021/07/11 11:08:13;;;;;;;7.82;6.38;;;;;;;;;;5116268;28;20023;-81
2021/07/11 11:10:40;;;;;;;8.45;6.65;;;;;;;;;;5117319;27;20550;-81
2021/07/11 11:13:12;;;;;;;7.60;6.55;;;;;;;;;;5117626;28;20035;-82
2021/07/11 11:15:45;;;;;;;7.55;6.68;;;;;;;;;;5117420;28;20040;-82
2021/07/11 11:18:21;;;;;;;9.05;6.00;;;;;;;;;;5117300;28;20044;-83
2021/07/11 11:20:55;;;;;;;6.53;5.88;;;;;;;;;;5117178;28;20039;-83
2021/07/11 11:23:21;;;;;;;10.02;6.57;;;;;;;;;;5115911;28;20039;-83
2021/07/11 11:25:47;;;;;;;8.75;6.18;;;;;;;;;;5101013;28;20036;-83
2021/07/11 11:28:24;;;;;;;8.95;6.80;;;;;;;;;;5097139;28;20444;-83
2021/07/11 11:30:49;;;;;;;12.35;6.75;;;;;;;;;;5096024;28;20506;-83
2021/07/11 11:33:15;;;;;;;9.82;7.38;;;;;;;;;;5096123;28;20055;-83
2021/07/11 11:35:46;;;;;;;13.88;7.75;;;;;;;;;;5095738;28;20040;-83
2021/07/11 11:38:11;;;;;;;8.35;7.40;;;;;;;;;;5097649;28;20046;-83
2021/07/11 11:40:37;;;;;;;8.57;7.50;;;;;;;;;;5097522;28;20136;-83
2021/07/11 11:43:05;;;;;;;12.52;7.93;;;;;;;;;;5096119;28;20028;-83
2021/07/11 11:45:33;;;;;;;16.85;7.32;;;;;;;;;;5096384;28;20032;-83
2021/07/11 11:48:05;;;;;;;9.50;7.40;;;;;;;;;;5101595;28;20028;-84
2021/07/11 11:50:32;;;;;;;7.97;7.18;;;;;;;;;;5103263;28;20064;-84
2021/07/11 11:53:09;;;;;;;22.05;8.52;;;;;;;;;;5100593;28;20494;-82
2021/07/11 11:55:37;;;;;;;17.50;9.30;;;;;;;;;;5113343;28;20589;-82
2021/07/11 11:58:04;;;;;;;13.13;8.35;;;;;;;;;;5122883;28;20031;-84
2021/07/11 12:00:30;;;;;;;12.80;7.90;;;;;;;;;;5124664;28;20505;-83
2021/07/11 12:03:05;;;;;;;12.57;8.48;;;;;;;;;;5122638;28;20043;-82
2021/07/11 12:05:32;;;;;;;11.75;9.25;;;;;;;;;;5120618;28;20325;-82
2021/07/11 12:07:59;;;;;;;13.70;9.10;;;;;;;;;;5103178;28;20032;-83
2021/07/11 12:10:27;;;;;;;15.43;9.57;;;;;;;;;;5119329;28;20038;-82
2021/07/11 12:12:57;;;;;;;9.25;7.97;;;;;;;;;;5120574;28;20044;-83
2021/07/11 12:15:32;;;;;;;9.88;8.88;;;;;;;;;;5120736;28;20043;-82
2021/07/11 12:18:06;;;;;;;;;;;;;;;;;;5121293;28;20055;-82
2021/07/11 12:20:31;;;;;;;9.85;8.27;;;;;;;;;;5117906;28;20424;-81
2021/07/11 12:22:57;;;;;;;14.35;9.52;;;;;;;;;;5119849;28;20028;-82
2021/07/11 12:25:29;;;;;;;11.93;8.00;;;;;;;;;;5118143;28;20402;-81
2021/07/11 12:28:00;;;;;;;12.65;8.60;;;;;;;;;;5119801;28;20034;-82
2021/07/11 12:30:35;;;;;;;11.45;8.40;;;;;;;;;;5119528;28;20478;-81
2021/07/11 12:33:00;;;;;;;14.40;7.82;;;;;;;;;;5119772;28;20035;-82
2021/07/11 12:35:26;;;;;;;11.73;8.82;;;;;;;;;;5127316;27;20030;-83
2021/07/11 12:37:59;;;;;;;8.73;7.63;;;;;;;;;;5138128;27;20055;-82
2021/07/11 12:40:28;;;;;;;8.70;7.75;;;;;;;;;;5139919;27;20042;-82
2021/07/11 12:43:22;;;;;;;10.07;7.50;;;;;;;;;;5138353;27;20027;-82
2021/07/11 12:45:59;;;;;;;11.43;7.65;;;;;;;;;;5138370;27;20577;-82
2021/07/11 12:48:44;;;;;;;8.88;7.45;;;;;;;;;;5139553;27;20113;-82
2021/07/11 12:51:14;;;;;;;9.43;8.10;;;;;;;;;;5137926;27;20092;-82
2021/07/11 12:53:40;;;;;;;10.30;7.18;;;;;;;;;;5139309;27;20031;-82
2021/07/11 12:56:05;;;;;;;10.52;7.97;;;;;;;;;;5138591;27;20035;-83
2021/07/11 12:58:45;;;;;;;10.43;7.75;;;;;;;;;;5121526;27;20077;-82
2021/07/11 13:01:12;;;;;;;12.68;7.57;;;;;;;;;;5118369;28;20039;-82
2021/07/11 13:03:38;;;;;;;10.65;8.10;;;;;;;;;;5117486;28;20066;-84
2021/07/11 13:06:06;;;;;;;10.13;7.80;;;;;;;;;;5116218;28;20032;-82
2021/07/11 13:08:31;;;;;;;9.43;7.28;;;;;;;;;;5116650;28;20437;-83
2021/07/11 13:10:57;;;;;;;12.80;7.65;;;;;;;;;;5117306;28;20036;-82
2021/07/11 13:13:22;;;;;;;8.90;7.55;;;;;;;;;;5117301;28;20077;-83
2021/07/11 13:15:48;;;;;;;8.48;7.47;;;;;;;;;;5115335;28;20043;-83
2021/07/11 13:18:14;;;;;;;11.00;7.75;;;;;;;;;;5117112;28;20045;-83
2021/07/11 13:20:43;;;;;;;8.68;7.72;;;;;;;;;;5116917;28;20035;-83
2021/07/11 13:23:09;;;;;;;9.07;7.03;;;;;;;;;;5114760;28;20122;-83
2021/07/11 13:25:36;;;;;;;10.48;7.57;;;;;;;;;;5116387;28;20537;-83
2021/07/11 13:28:02;;;;;;;8.18;7.03;;;;;;;;;;5097772;28;20040;-83
2021/07/11 13:30:30;;;;;;;7.45;6.38;;;;;;;;;;5094275;28;20036;-83
2021/07/11 13:32:56;;;;;;;8.73;6.80;;;;;;;;;;5095765;28;20058;-83
2021/07/11 13:35:23;;;;;;;9.95;6.63;;;;;;;;;;5097550;28;20031;-84
2021/07/11 13:37:50;;;;;;;7.47;6.32;;;;;;;;;;5096786;28;20032;-84
2021/07/11 13:40:17;;;;;;;6.78;5.70;;;;;;;;;;5097273;28;20054;-83
2021/07/11 13:42:43;;;;;;;5.63;4.90;;;;;;;;;;5112940;28;20032;-84
2021/07/11 13:45:12;;;;;;;7.72;5.75;;;;;;;;;;5097049;28;20051;-84
2021/07/11 13:47:39;;;;;;;5.30;4.80;;;;;;;;;;5096980;28;20036;-84
2021/07/11 13:50:07;;;;;;;11.77;4.95;;;;;;;;;;5094844;28;20441;-83
2021/07/11 13:52:33;;;;;;;13.40;5.38;;;;;;;;;;5076662;28;20032;-84
2021/07/11 13:54:58;;;;;;;8.25;4.65;;;;;;;;;;5109905;28;20036;-83
2021/07/11 13:57:24;;;;;;;5.45;4.10;;;;;;;;;;5111466;28;20040;-83
2021/07/11 13:59:50;;;;;;;10.80;4.50;;;;;;;;;;5113238;28;20422;-85
2021/07/11 14:02:16;;;;;;;5.88;4.03;;;;;;;;;;5113098;28;20062;-83
2021/07/11 14:04:42;;;;;;;6.40;4.38;;;;;;;;;;5116375;28;20058;-84
2021/07/11 14:07:07;;;;;;;14.98;4.95;;;;;;;;;;5116496;28;20035;-84
2021/07/11 14:09:33;;;;;;;8.85;4.70;;;;;;;;;;5116172;28;20042;-84
2021/07/11 14:11:58;;;;;;;4.63;3.85;;;;;;;;;;5114767;28;20448;-86
2021/07/11 14:14:24;;;;;;;5.40;4.20;;;;;;;;;;5114595;28;20403;-84
2021/07/11 14:16:50;;;;;;;6.57;4.35;;;;;;;;;;5116038;28;20035;-84
2021/07/11 14:19:15;;;;;;;6.45;4.28;;;;;;;;;;5116855;28;20058;-84
2021/07/11 14:21:41;;;;;;;4.35;3.58;;;;;;;;;;5117379;28;20054;-84
2021/07/11 14:24:07;;;;;;;5.18;4.20;;;;;;;;;;5113959;28;20058;-84
2021/07/11 14:26:34;;;;;;;4.70;4.18;;;;;;;;;;5116529;28;20031;-84
2021/07/11 14:28:59;;;;;;;5.15;4.00;;;;;;;;;;5117016;28;20067;-84
2021/07/11 14:31:25;;;;;;;6.75;4.28;;;;;;;;;;5116307;28;20479;-84
2021/07/11 14:33:50;;;;;;;11.07;4.70;;;;;;;;;;5113397;28;20110;-81
2021/07/11 14:36:16;;;;;;;6.50;4.03;;;;;;;;;;5113696;28;20569;-81
2021/07/11 14:38:41;;;;;;;7.60;3.63;;;;;;;;;;5114681;28;20106;-81